Time;durP1;ratioP1;P1;durP2;ratioP2;P2;SDS_P1;SDS_P2;PMS_P1;PMS_P2;Temp;Humidity;BMP_temperature;BMP_pressure;BME280_temperature;BME280_humidity;BME280_pressure;Samples;Min_cycle;Max_cycle;Signal;HPM_P1;HPM_P2
2022/09/14 00:00:41;;;;;;;3.93;2.23;;;;;;;15.18;100.00;101190.72;2085720;28;22605;-63
2022/09/14 00:01:45;;;;;;;6.80;1.90;;;;;;;15.14;100.00;101181.66;2085719;28;20176;-63
2022/09/14 00:02:45;;;;;;;4.10;1.60;;;;;;;15.13;100.00;101199.66;2086005;28;20242;-63
2022/09/14 00:03:46;;;;;;;5.63;2.10;;;;;;;15.13;100.00;101194.06;2087527;28;20490;-63
2022/09/14 00:04:47;;;;;;;2.93;1.93;;;;;;;15.07;100.00;101190.28;2086083;28;20568;-63
2022/09/14 00:05:48;;;;;;;4.53;2.10;;;;;;;14.98;100.00;101179.03;2085420;28;20186;-63
2022/09/14 00:06:48;;;;;;;4.53;2.30;;;;;;;15.11;100.00;101199.34;2085733;28;20542;-63
2022/09/14 00:07:49;;;;;;;4.97;2.03;;;;;;;15.05;100.00;101189.94;2085478;28;20184;-63
2022/09/14 00:08:51;;;;;;;2.53;1.80;;;;;;;15.07;100.00;101193.84;2086997;28;20180;-63
2022/09/14 00:09:52;;;;;;;3.77;2.00;;;;;;;14.78;100.00;101159.75;2087430;28;20200;-63
2022/09/14 00:10:52;;;;;;;4.70;2.03;;;;;;;15.00;100.00;101174.56;2085434;28;20583;-63
2022/09/14 00:11:53;;;;;;;3.53;2.13;;;;;;;14.43;100.00;101096.75;2085664;28;20199;-63
2022/09/14 00:12:53;;;;;;;3.87;2.10;;;;;;;15.03;100.00;101189.63;2084989;28;20196;-63
2022/09/14 00:13:56;;;;;;;4.57;1.80;;;;;;;15.05;100.00;101201.09;2084770;28;20208;-63
2022/09/14 00:14:56;;;;;;;2.43;1.73;;;;;;;15.05;100.00;101181.56;2085273;28;20614;-63
2022/09/14 00:16:02;;;;;;;3.33;1.80;;;;;;;15.03;100.00;101182.03;2087257;28;20540;-63
2022/09/14 00:17:03;;;;;;;3.50;2.17;;;;;;;15.02;100.00;101179.69;2085863;28;20195;-63
2022/09/14 00:18:06;;;;;;;2.60;1.83;;;;;;;15.01;100.00;101184.47;2085485;28;20536;-63
2022/09/14 00:19:14;;;;;;;2.23;1.63;;;;;;;15.02;100.00;101176.91;2085754;28;20205;-63
2022/09/14 00:20:15;;;;;;;3.23;1.67;;;;;;;14.89;100.00;101159.38;2084518;28;20455;-63
2022/09/14 00:21:15;;;;;;;3.13;1.90;;;;;;;15.04;100.00;101188.38;2084555;28;20498;-63
2022/09/14 00:22:16;;;;;;;2.43;1.90;;;;;;;15.05;100.00;101190.75;2085074;28;20192;-63
2022/09/14 00:23:16;;;;;;;4.13;1.90;;;;;;;15.07;100.00;101184.72;2087476;28;20708;-63
2022/09/14 00:24:17;;;;;;;2.53;1.87;;;;;;;15.07;100.00;101181.91;2086028;28;20195;-63
2022/09/14 00:25:17;;;;;;;3.80;2.03;;;;;;;14.70;100.00;101152.81;2085465;28;20196;-63
2022/09/14 00:26:20;;;;;;;9.70;2.10;;;;;;;15.05;100.00;101187.94;2084461;28;20661;-63
2022/09/14 00:27:21;;;;;;;7.50;2.60;;;;;;;15.07;100.00;101179.13;2086120;28;20278;-63
2022/09/14 00:28:21;;;;;;;4.97;2.53;;;;;;;15.10;100.00;101189.38;2086699;28;20469;-63
2022/09/14 00:29:23;;;;;;;6.13;2.33;;;;;;;15.11;100.00;101186.16;2089391;28;20232;-63
2022/09/14 00:30:24;;;;;;;5.67;2.30;;;;;;;15.13;100.00;101194.06;2087221;28;20244;-63
2022/09/14 00:31:25;;;;;;;6.73;2.00;;;;;;;15.09;100.00;101187.81;2086539;28;20574;-63
2022/09/14 00:32:25;;;;;;;6.40;2.40;;;;;;;15.14;100.00;101190.03;2086566;28;20192;-63
2022/09/14 00:33:26;;;;;;;4.13;2.30;;;;;;;15.13;100.00;101188.50;2087355;28;20188;-63
2022/09/14 00:34:26;;;;;;;4.63;2.00;;;;;;;15.14;100.00;101196.44;2086754;28;20238;-63
2022/09/14 00:35:27;;;;;;;4.90;2.20;;;;;;;15.03;100.00;101165.28;2089282;28;20184;-63
2022/09/14 00:36:29;;;;;;;5.80;2.10;;;;;;;15.18;100.00;101190.72;2086928;28;20561;-63
2022/09/14 00:37:29;;;;;;;8.03;2.43;;;;;;;15.18;100.00;101194.31;2086736;28;20441;-63
2022/09/14 00:38:29;;;;;;;5.77;2.40;;;;;;;15.20;100.00;101196.63;2086636;28;20979;-63
2022/09/14 00:39:30;;;;;;;4.77;2.20;;;;;;;15.13;100.00;101194.06;2087334;28;20201;-63
2022/09/14 00:40:30;;;;;;;6.50;2.50;;;;;;;15.01;100.00;101201.22;2086719;28;20192;-63
2022/09/14 00:41:34;;;;;;;4.07;2.50;;;;;;;15.01;100.00;101198.44;2089195;28;20234;-63
2022/09/14 00:42:35;;;;;;;5.03;2.47;;;;;;;15.04;100.00;101197.56;2086730;28;20205;-63
2022/09/14 00:44:10;;;;;;;5.53;2.30;;;;;;;15.07;100.00;101202.22;2087134;28;20450;-63
2022/09/14 00:45:20;;;;;;;4.60;2.50;;;;;;;15.11;100.00;101200.09;2089019;28;20464;-63
2022/09/14 00:46:21;;;;;;;3.50;2.10;;;;;;;15.13;100.00;101194.06;2088229;28;20458;-63
2022/09/14 00:47:22;;;;;;;3.73;2.00;;;;;;;15.13;100.00;101194.06;2087420;28;20527;-63
2022/09/14 00:48:24;;;;;;;3.43;2.10;;;;;;;15.14;100.00;101196.44;2085872;28;20454;-63
2022/09/14 00:49:40;;;;;;;3.30;2.10;;;;;;;14.87;100.00;101151.50;2086075;28;20826;-63
2022/09/14 00:50:40;;;;;;;3.87;2.10;;;;;;;14.98;100.00;101171.44;2085747;28;20982;-64
2022/09/14 00:51:57;;;;;;;3.20;2.10;;;;;;;15.17;100.00;101194.75;2086472;28;20920;-63
2022/09/14 00:52:58;;;;;;;5.80;2.13;;;;;;;15.21;100.00;101187.03;2086062;28;20204;-63
2022/09/14 00:54:03;;;;;;;3.60;2.00;;;;;;;15.16;100.00;101180.00;2086854;28;20423;-63
2022/09/14 00:55:10;;;;;;;5.70;2.23;;;;;;;15.09;100.00;101168.28;2087493;28;20838;-63
2022/09/14 00:56:12;;;;;;;4.47;2.50;;;;;;;14.88;100.00;101135.50;2088074;28;20434;-63
2022/09/14 00:57:14;;;;;;;4.80;2.20;;;;;;;15.22;100.00;101180.97;2086693;28;20451;-63
2022/09/14 00:58:14;;;;;;;3.97;2.20;;;;;;;15.20;100.00;101180.66;2087240;28;20457;-63
2022/09/14 00:59:24;;;;;;;4.57;2.37;;;;;;;14.83;100.00;101119.31;2086977;28;20474;-63
2022/09/14 01:00:27;;;;;;;3.37;2.30;;;;;;;14.73;100.00;101104.50;2086750;28;20654;-63
2022/09/14 01:01:28;;;;;;;3.20;2.27;;;;;;;14.75;100.00;101093.66;2086903;28;20489;-63
2022/09/14 01:02:28;;;;;;;4.63;2.03;;;;;;;15.25;100.00;101171.72;2086589;28;20436;-63
2022/09/14 01:03:29;;;;;;;4.13;2.23;;;;;;;15.16;100.00;101154.09;2089032;28;20188;-63
2022/09/14 01:04:30;;;;;;;3.90;2.37;;;;;;;15.27;100.00;101169.25;2086148;28;20207;-63
2022/09/14 01:05:46;;;;;;;5.10;2.43;;;;;;;15.27;100.00;101169.25;2086762;28;20290;-64
2022/09/14 01:07:13;;;;;;;3.90;2.40;;;;;;;15.27;100.00;101166.44;2087044;28;20930;-64
2022/09/14 01:08:41;;;;;;;4.53;2.60;;;;;;;15.30;100.00;101168.34;2079953;28;20431;-64
2022/09/14 01:10:09;;;;;;;8.07;2.87;;;;;;;15.31;100.00;101167.09;2086457;28;20438;-64
2022/09/14 01:11:24;;;;;;;6.53;2.77;;;;;;;15.32;100.00;101165.09;2086488;28;20454;-63
2022/09/14 01:12:30;;;;;;;7.00;2.53;;;;;;;15.29;100.00;101166.00;2086694;28;20450;-63
2022/09/14 01:13:45;;;;;;;6.73;2.47;;;;;;;15.28;100.00;101168.03;2086366;28;20467;-64
2022/09/14 01:15:19;;;;;;;8.63;3.37;;;;;;;14.82;100.00;101101.81;2085904;28;20429;-64
2022/09/14 01:16:55;;;;;;;13.67;3.43;;;;;;;15.25;100.00;101165.34;2085917;28;20524;-63
2022/09/14 01:18:09;;;;;;;9.50;3.37;;;;;;;15.21;100.00;101184.25;2079280;28;20491;-63
2022/09/14 01:19:31;;;;;;;9.90;3.17;;;;;;;15.17;100.00;101158.44;2088360;28;20426;-63
2022/09/14 01:20:32;;;;;;;16.83;3.90;;;;;;;15.18;100.00;101169.16;2088739;28;20804;-63
2022/09/14 01:21:37;;;;;;;25.50;4.77;;;;;;;14.41;100.00;101051.78;2088027;28;21180;-63
2022/09/14 01:23:19;;;;;;;22.17;4.23;;;;;;;15.17;100.00;101172.41;2085875;28;20251;-63
2022/09/14 01:24:33;;;;;;;15.23;3.40;;;;;;;14.75;100.00;101121.56;2085501;28;20517;-63
2022/09/14 01:26:08;;;;;;;15.43;4.00;;;;;;;15.07;100.00;101162.38;2086788;28;20951;-63
2022/09/14 01:27:20;;;;;;;12.20;3.10;;;;;;;15.09;100.00;101171.06;2086641;28;20438;-63
2022/09/14 01:28:28;;;;;;;12.83;3.33;;;;;;;14.91;100.00;101145.78;2086568;28;20478;-63
2022/09/14 01:29:43;;;;;;;8.57;2.73;;;;;;;15.04;100.00;101188.38;2086780;28;20501;-63
2022/09/14 01:30:46;;;;;;;10.50;2.60;;;;;;;15.08;100.00;101170.31;2086408;28;20470;-63
2022/09/14 01:31:53;;;;;;;7.23;2.90;;;;;;;15.09;100.00;101179.44;2086524;28;20462;-63
2022/09/14 01:33:15;;;;;;;9.77;3.13;;;;;;;15.08;100.00;101170.31;2086607;28;20480;-63
2022/09/14 01:34:44;;;;;;;9.93;3.37;;;;;;;15.07;100.00;101177.09;2086635;28;20450;-63
2022/09/14 01:35:55;;;;;;;13.50;3.23;;;;;;;15.08;100.00;101181.47;2083446;28;20454;-63
2022/09/14 01:37:02;;;;;;;9.93;2.83;;;;;;;15.12;100.00;101175.78;2087037;28;20473;-63
2022/09/14 01:38:14;;;;;;;12.60;3.13;;;;;;;15.12;100.00;101178.56;2086481;28;20442;-64
2022/09/14 01:39:16;;;;;;;9.43;2.90;;;;;;;14.78;100.00;101128.25;2085786;28;20559;-64
2022/09/14 01:40:23;;;;;;;8.47;2.80;;;;;;;14.76;100.00;101120.34;2086455;28;20419;-64
2022/09/14 01:41:29;;;;;;;10.37;2.73;;;;;;;14.80;100.00;101111.88;2086841;28;21208;-63
2022/09/14 01:42:31;;;;;;;8.20;2.70;;;;;;;15.14;100.00;101160.13;2086943;28;20502;-63
2022/09/14 01:43:37;;;;;;;7.87;2.63;;;;;;;15.13;100.00;101175.31;2088494;28;20805;-63
2022/09/14 01:44:41;;;;;;;9.63;2.80;;;;;;;15.13;100.00;101174.53;2086602;28;20430;-63
2022/09/14 01:45:47;;;;;;;10.00;3.03;;;;;;;15.14;100.00;101173.28;2086133;28;20427;-63
2022/09/14 01:46:53;;;;;;;6.13;2.47;;;;;;;15.15;100.00;101170.06;2086305;28;20442;-64
2022/09/14 01:48:06;;;;;;;8.87;2.70;;;;;;;15.03;100.00;101144.97;2086535;28;20440;-64
2022/09/14 01:49:22;;;;;;;8.03;2.57;;;;;;;15.18;100.00;101171.97;2086038;28;20485;-64
2022/09/14 01:50:30;;;;;;;5.30;2.40;;;;;;;14.72;100.00;101102.97;2086326;28;21011;-63
2022/09/14 01:51:37;;;;;;;9.63;2.87;;;;;;;15.20;100.00;101171.50;2086608;28;20499;-63
2022/09/14 01:52:49;;;;;;;10.73;3.33;;;;;;;15.04;100.00;101157.69;2086378;28;20431;-63
2022/09/14 01:53:56;;;;;;;4.80;2.40;;;;;;;15.14;100.00;101154.53;2086313;28;20443;-63
2022/09/14 01:55:05;;;;;;;5.70;2.60;;;;;;;15.20;100.00;101163.91;2086579;28;20454;-64
2022/09/14 01:56:23;;;;;;;5.33;2.47;;;;;;;15.22;100.00;101172.59;2085471;28;20411;-63
2022/09/14 01:57:43;;;;;;;6.40;2.50;;;;;;;15.20;100.00;101174.28;2085893;28;20427;-63
2022/09/14 01:58:54;;;;;;;7.73;2.83;;;;;;;15.18;100.00;101171.16;2086560;28;20440;-63
2022/09/14 02:00:00;;;;;;;6.73;2.73;;;;;;;14.22;100.00;101016.56;2086516;28;20451;-63
2022/09/14 02:01:05;;;;;;;10.17;2.67;;;;;;;15.14;100.00;101154.53;2086576;28;31257;-63
2022/09/14 02:02:13;;;;;;;22.17;4.73;;;;;;;15.14;100.00;101162.94;2086620;28;20475;-63
2022/09/14 02:03:36;;;;;;;24.07;4.93;;;;;;;14.37;100.00;101045.56;2086179;28;20514;-63
2022/09/14 02:04:45;;;;;;;29.97;5.63;;;;;;;15.07;100.00;101157.56;2086425;28;20418;-63
2022/09/14 02:06:23;;;;;;;24.37;4.83;;;;;;;15.06;100.00;101158.78;2085777;28;20777;-63
2022/09/14 02:07:25;;;;;;;22.23;4.10;;;;;;;15.05;100.00;101162.81;2086482;28;20442;-63
2022/09/14 02:08:28;;;;;;;19.87;4.40;;;;;;;14.33;100.00;101046.88;2086015;28;20973;-63
2022/09/14 02:09:29;;;;;;;19.77;4.13;;;;;;;15.03;100.00;101158.91;2086757;28;20442;-63
2022/09/14 02:10:30;;;;;;;16.13;3.97;;;;;;;14.96;100.00;101145.22;2085188;28;20422;-64
2022/09/14 02:11:30;;;;;;;13.63;3.60;;;;;;;15.04;100.00;101161.28;2087026;28;20720;-64
2022/09/14 02:12:31;;;;;;;16.00;3.67;;;;;;;15.04;100.00;101154.91;2084848;28;20527;-64
2022/09/14 02:13:32;;;;;;;12.53;3.73;;;;;;;15.03;100.00;101156.91;2086572;28;20212;-63
2022/09/14 02:14:33;;;;;;;15.53;3.63;;;;;;;15.02;100.00;101158.13;2086216;28;20200;-64
2022/09/14 02:15:35;;;;;;;15.67;4.03;;;;;;;14.63;100.00;101090.91;2086258;28;20191;-63
2022/09/14 02:16:36;;;;;;;16.17;4.10;;;;;;;15.05;100.00;101151.66;2085107;28;20215;-63
2022/09/14 02:17:37;;;;;;;12.33;3.77;;;;;;;15.05;100.00;101156.44;2088092;28;20419;-63
2022/09/14 02:18:38;;;;;;;14.50;4.30;;;;;;;15.05;100.00;101159.25;2086478;28;20567;-64
2022/09/14 02:20:01;;;;;;;15.47;4.23;;;;;;;15.04;100.00;101166.06;2085461;28;20625;-64
2022/09/14 02:21:09;;;;;;;19.87;4.67;;;;;;;14.91;100.00;101156.94;2086082;28;20451;-64
2022/09/14 02:22:09;;;;;;;21.67;3.90;;;;;;;14.97;100.00;101163.50;2086467;28;20800;-63
2022/09/14 02:23:10;;;;;;;14.33;3.70;;;;;;;14.97;100.00;101163.50;2086072;28;20461;-64
2022/09/14 02:24:11;;;;;;;13.03;4.07;;;;;;;14.97;100.00;101160.72;2084658;28;20208;-63
2022/09/14 02:25:12;;;;;;;11.43;3.40;;;;;;;14.97;100.00;101163.50;2086389;28;20175;-63
2022/09/14 02:26:13;;;;;;;14.70;3.80;;;;;;;15.00;100.00;101163.38;2087844;28;20419;-63
2022/09/14 02:27:13;;;;;;;14.93;3.93;;;;;;;15.01;100.00;101162.16;2085821;28;20219;-63
2022/09/14 02:28:15;;;;;;;10.50;3.77;;;;;;;15.01;100.00;101159.38;2076496;28;20689;-63
2022/09/14 02:29:16;;;;;;;9.37;3.80;;;;;;;14.98;100.00;101165.88;2085318;28;20720;-63
2022/09/14 02:30:19;;;;;;;15.90;3.53;;;;;;;14.96;100.00;101162.72;2086127;28;20990;-63
2022/09/14 02:31:37;;;;;;;11.57;3.03;;;;;;;15.00;100.00;101157.03;2086074;28;20321;-63
2022/09/14 02:33:09;;;;;;;11.03;3.60;;;;;;;14.96;100.00;101159.16;2086190;28;20456;-63
2022/09/14 02:34:09;;;;;;;8.50;2.93;;;;;;;14.98;100.00;101159.50;2085554;28;20451;-64
2022/09/14 02:35:15;;;;;;;8.93;3.20;;;;;;;14.97;100.00;101157.94;2084493;28;20494;-64
2022/09/14 02:36:35;;;;;;;10.43;3.27;;;;;;;14.43;100.00;101077.22;2085697;28;20986;-64
2022/09/14 02:38:01;;;;;;;7.10;3.07;;;;;;;14.87;100.00;101156.28;2085904;28;20982;-64
2022/09/14 02:39:07;;;;;;;9.83;3.17;;;;;;;14.78;100.00;101159.75;2086282;28;20457;-63
2022/09/14 02:40:16;;;;;;;8.50;3.33;;;;;;;14.79;100.00;101155.72;2086625;28;20439;-64
2022/09/14 02:41:29;;;;;;;6.43;2.70;;;;;;;14.74;100.00;101161.06;2086318;28;20450;-64
2022/09/14 02:42:42;;;;;;;7.83;3.00;;;;;;;14.76;100.00;101170.56;2085704;28;20606;-63
2022/09/14 02:44:24;;;;;;;5.57;2.70;;;;;;;14.66;100.00;101145.81;2086287;28;20445;-64
2022/09/14 02:45:30;;;;;;;5.17;2.80;;;;;;;14.74;100.00;101169.44;2076923;28;20577;-64
2022/09/14 02:46:30;;;;;;;9.20;3.17;;;;;;;14.73;100.00;101165.09;2076555;28;20469;-63
2022/09/14 02:47:31;;;;;;;5.83;2.70;;;;;;;14.72;100.00;101158.75;2078954;28;20995;-64
2022/09/14 02:48:40;;;;;;;7.63;2.70;;;;;;;14.18;100.00;101082.78;2085679;28;20325;-64
2022/09/14 02:50:13;;;;;;;10.33;2.77;;;;;;;14.76;100.00;101167.75;2086335;28;20312;-63
2022/09/14 02:51:38;;;;;;;8.40;2.83;;;;;;;14.75;100.00;101169.00;2086013;28;20442;-63
2022/09/14 02:52:50;;;;;;;7.43;2.90;;;;;;;14.76;100.00;101175.38;2085708;28;20443;-63
2022/09/14 02:54:20;;;;;;;8.80;2.83;;;;;;;14.71;100.00;101173.91;2086046;28;21037;-63
2022/09/14 02:55:25;;;;;;;7.97;2.70;;;;;;;14.70;100.00;101169.56;2087431;28;20494;-63
2022/09/14 02:56:27;;;;;;;6.83;2.70;;;;;;;14.73;100.00;101165.09;2086110;28;20445;-63
2022/09/14 02:57:28;;;;;;;6.57;2.80;;;;;;;14.45;100.00;101124.94;2084943;28;20531;-63
2022/09/14 02:58:37;;;;;;;7.57;2.83;;;;;;;14.77;100.00;101169.34;2085277;28;20486;-63
2022/09/14 02:59:38;;;;;;;6.43;2.43;;;;;;;14.78;100.00;101170.91;2085849;28;20218;-63
2022/09/14 03:00:45;;;;;;;6.07;2.80;;;;;;;14.80;100.00;101171.22;2086048;28;20457;-64
2022/09/14 03:01:45;;;;;;;4.43;2.90;;;;;;;14.84;100.00;101174.69;2086112;28;20640;-64
2022/09/14 03:02:46;;;;;;;7.00;2.90;;;;;;;14.88;100.00;101169.00;2085807;28;20817;-63
2022/09/14 03:03:46;;;;;;;5.10;2.83;;;;;;;14.90;100.00;101170.09;2088216;28;20177;-63
2022/09/14 03:04:46;;;;;;;5.40;2.80;;;;;;;14.89;100.00;101170.53;2086086;28;20567;-63
2022/09/14 03:05:47;;;;;;;11.20;2.97;;;;;;;14.95;100.00;101177.13;2085558;28;20216;-63
2022/09/14 03:06:47;;;;;;;7.43;3.13;;;;;;;14.97;100.00;101172.66;2085966;28;20188;-63
2022/09/14 03:07:48;;;;;;;8.03;2.70;;;;;;;15.00;100.00;101168.97;2086084;28;20215;-63
2022/09/14 03:08:49;;;;;;;7.30;2.90;;;;;;;15.00;100.00;101168.97;2086279;28;20180;-63
2022/09/14 03:09:50;;;;;;;6.17;2.63;;;;;;;15.01;100.00;101164.19;2087725;28;20614;-63
2022/09/14 03:10:50;;;;;;;7.03;2.90;;;;;;;14.61;100.00;101104.53;2085936;28;20182;-63
2022/09/14 03:11:51;;;;;;;6.73;2.77;;;;;;;14.97;100.00;101169.09;2085743;28;20445;-63
2022/09/14 03:12:51;;;;;;;5.23;2.60;;;;;;;14.76;100.00;101130.75;2085654;28;20186;-63
2022/09/14 03:13:52;;;;;;;7.83;3.07;;;;;;;14.98;100.00;101179.03;2086085;28;20681;-63
2022/09/14 03:14:52;;;;;;;8.83;3.03;;;;;;;14.95;100.00;101177.91;2086601;28;20190;-63
2022/09/14 03:15:53;;;;;;;10.80;3.90;;;;;;;14.97;100.00;101175.44;2087175;28;20198;-63
2022/09/14 03:16:54;;;;;;;11.77;3.37;;;;;;;14.95;100.00;101175.13;2085816;28;20194;-63
2022/09/14 03:17:55;;;;;;;10.07;3.57;;;;;;;14.94;100.00;101187.53;2084954;28;20188;-63
2022/09/14 03:18:55;;;;;;;10.67;4.20;;;;;;;14.91;100.00;101179.28;2085194;28;20200;-63
2022/09/14 03:19:56;;;;;;;8.83;3.57;;;;;;;14.84;100.00;101177.47;2085608;28;20458;-63
2022/09/14 03:21:10;;;;;;;4.90;2.90;;;;;;;14.74;100.00;101159.06;2086835;28;20565;-63
2022/09/14 03:22:11;;;;;;;4.73;2.73;;;;;;;14.81;100.00;101172.78;2085700;28;20180;-64
2022/09/14 03:23:12;;;;;;;4.40;2.70;;;;;;;14.86;100.00;101174.25;2087758;28;20433;-63
2022/09/14 03:24:12;;;;;;;4.27;2.70;;;;;;;14.07;100.00;101059.22;2085974;28;20226;-63
2022/09/14 03:25:13;;;;;;;6.50;2.70;;;;;;;14.67;100.00;101167.69;2085932;28;20457;-63
2022/09/14 03:26:19;;;;;;;5.30;2.43;;;;;;;14.66;100.00;101166.09;2085194;28;20559;-63
2022/09/14 03:27:19;;;;;;;6.77;2.90;;;;;;;14.69;100.00;101162.44;2085708;28;20182;-63
2022/09/14 03:28:20;;;;;;;7.97;2.93;;;;;;;14.77;100.00;101171.34;2085236;28;21052;-63
2022/09/14 03:29:20;;;;;;;10.10;2.40;;;;;;;14.83;100.00;101169.56;2087793;28;20182;-63
2022/09/14 03:30:22;;;;;;;3.00;2.30;;;;;;;14.80;100.00;101165.66;2086077;28;20198;-63
2022/09/14 03:31:23;;;;;;;5.67;2.57;;;;;;;14.88;100.00;101177.38;2086029;28;20190;-63
2022/09/14 03:32:23;;;;;;;6.47;2.53;;;;;;;14.89;100.00;101162.97;2084320;28;20452;-63
2022/09/14 03:33:23;;;;;;;4.47;2.67;;;;;;;14.90;100.00;101167.31;2086059;28;20616;-63
2022/09/14 03:34:24;;;;;;;3.00;2.57;;;;;;;14.40;100.00;101080.13;2085340;28;20233;-63
2022/09/14 03:35:27;;;;;;;4.57;2.50;;;;;;;14.48;100.00;101084.22;2087998;28;20188;-63
2022/09/14 03:36:29;;;;;;;5.30;2.20;;;;;;;15.04;100.00;101178.03;2085141;28;20274;-63
2022/09/14 03:37:29;;;;;;;5.27;2.47;;;;;;;15.03;100.00;101179.25;2085686;28;20880;-63
2022/09/14 03:38:30;;;;;;;6.40;2.50;;;;;;;15.07;100.00;101170.75;2084846;28;20524;-63
2022/09/14 03:39:30;;;;;;;3.87;2.30;;;;;;;15.07;100.00;101177.09;2086058;28;20248;-63
2022/09/14 03:40:31;;;;;;;4.50;2.70;;;;;;;15.08;100.00;101180.69;2085395;28;20245;-63
2022/09/14 03:41:31;;;;;;;5.37;2.40;;;;;;;14.50;100.00;101085.34;2087965;28;20199;-63
2022/09/14 03:42:32;;;;;;;5.87;2.50;;;;;;;15.13;100.00;101180.91;2085878;28;20415;-63
2022/09/14 03:43:32;;;;;;;4.20;2.30;;;;;;;15.11;100.00;101185.38;2084465;28;20252;-63
2022/09/14 03:44:33;;;;;;;3.80;2.47;;;;;;;15.12;100.00;101184.16;2085073;28;20774;-63
2022/09/14 03:45:35;;;;;;;4.07;2.60;;;;;;;14.98;100.00;101159.50;2085876;28;20203;-63
2022/09/14 03:46:36;;;;;;;5.13;2.37;;;;;;;15.17;100.00;101181.53;2085148;28;20642;-63
2022/09/14 03:47:37;;;;;;;2.00;1.80;;;;;;;15.18;100.00;101177.56;2087752;28;20798;-64
2022/09/14 03:48:38;;;;;;;3.30;2.33;;;;;;;15.21;100.00;101185.00;2085554;28;20191;-64
2022/09/14 03:49:39;;;;;;;2.63;2.20;;;;;;;15.25;100.00;101174.50;2085765;28;20533;-63
2022/09/14 03:50:39;;;;;;;4.80;2.20;;;;;;;15.27;100.00;101180.41;2085539;28;20187;-63
2022/09/14 03:51:40;;;;;;;4.23;2.20;;;;;;;15.29;100.00;101180.75;2085773;28;20287;-63
2022/09/14 03:52:40;;;;;;;4.60;2.47;;;;;;;15.31;100.00;101181.06;2085601;28;20186;-63
2022/09/14 03:53:43;;;;;;;5.37;2.43;;;;;;;15.31;100.00;101178.28;2087996;28;20264;-63
2022/09/14 03:54:43;;;;;;;3.57;2.30;;;;;;;15.32;100.00;101185.41;2086518;28;20181;-63
2022/09/14 03:55:44;;;;;;;3.07;2.20;;;;;;;15.09;100.00;101154.31;2085590;28;20446;-63
2022/09/14 03:56:44;;;;;;;5.37;2.43;;;;;;;15.33;100.00;101184.25;2085217;28;20223;-63
2022/09/14 03:57:44;;;;;;;3.40;2.43;;;;;;;15.09;100.00;101146.75;2085839;28;20207;-63
2022/09/14 03:58:46;;;;;;;5.13;2.40;;;;;;;15.34;100.00;101185.78;2085477;28;20214;-63
2022/09/14 03:59:47;;;;;;;3.70;2.83;;;;;;;15.35;100.00;101183.75;2087984;28;20200;-63
2022/09/14 04:00:47;;;;;;;4.10;2.70;;;;;;;15.36;100.00;101186.13;2085628;28;20434;-63
2022/09/14 04:01:48;;;;;;;5.93;2.20;;;;;;;15.38;100.00;101185.66;2085339;28;20226;-63
2022/09/14 04:02:48;;;;;;;5.27;2.50;;;;;;;15.29;100.00;101182.75;2087080;28;20272;-63
2022/09/14 04:03:49;;;;;;;5.20;2.33;;;;;;;15.35;100.00;101189.34;2087230;28;20196;-63
2022/09/14 04:04:50;;;;;;;4.40;2.47;;;;;;;15.20;100.00;101168.69;2087216;28;20241;-64
2022/09/14 04:05:55;;;;;;;5.03;2.47;;;;;;;15.32;100.00;101188.22;2088990;28;20191;-64
2022/09/14 04:06:55;;;;;;;2.90;2.30;;;;;;;15.34;100.00;101191.38;2089336;28;20196;-64
2022/09/14 04:07:56;;;;;;;6.30;2.37;;;;;;;15.13;100.00;101155.00;2086947;28;20510;-64
2022/09/14 04:08:56;;;;;;;3.33;2.23;;;;;;;15.36;100.00;101193.72;2087267;28;20201;-64
2022/09/14 04:09:57;;;;;;;3.57;2.13;;;;;;;15.30;100.00;101182.31;2086784;28;20191;-64
2022/09/14 04:10:57;;;;;;;3.80;2.30;;;;;;;15.34;100.00;101187.78;2087334;28;20207;-64
2022/09/14 04:11:58;;;;;;;3.77;2.20;;;;;;;15.40;100.00;101194.38;2087541;28;20238;-64
2022/09/14 04:12:58;;;;;;;5.27;2.50;;;;;;;15.42;100.00;101203.84;2088265;28;20863;-64
2022/09/14 04:14:01;;;;;;;7.47;2.40;;;;;;;15.43;100.00;101193.47;2087501;28;20538;-63
2022/09/14 04:15:02;;;;;;;4.17;2.53;;;;;;;15.45;100.00;101196.59;2087208;28;20191;-63
2022/09/14 04:16:03;;;;;;;8.93;2.53;;;;;;;15.43;100.00;101199.81;2086388;28;20446;-63
2022/09/14 04:17:04;;;;;;;3.60;3.03;;;;;;;15.44;100.00;101203.41;2087090;28;20476;-63
2022/09/14 04:18:04;;;;;;;4.93;3.07;;;;;;;15.10;100.00;101159.47;2087073;28;20430;-63
2022/09/14 04:19:05;;;;;;;8.83;2.90;;;;;;;15.17;100.00;101167.59;2089301;28;20187;-63
2022/09/14 04:20:06;;;;;;;6.00;2.73;;;;;;;14.94;100.00;101130.91;2087041;28;20548;-63
2022/09/14 04:21:12;;;;;;;4.37;3.10;;;;;;;14.72;100.00;101104.97;2086681;28;20192;-63
2022/09/14 04:22:12;;;;;;;6.73;2.80;;;;;;;14.82;100.00;101124.16;2085463;28;20510;-63
2022/09/14 04:23:13;;;;;;;5.63;2.70;;;;;;;15.38;100.00;101202.44;2082318;28;20586;-63
2022/09/14 04:24:13;;;;;;;10.40;3.10;;;;;;;15.42;100.00;101208.69;2085884;28;20198;-63
2022/09/14 04:25:14;;;;;;;7.13;3.23;;;;;;;15.43;100.00;101207.44;2088726;28;20211;-64
2022/09/14 04:26:17;;;;;;;7.50;3.33;;;;;;;15.47;100.00;101199.72;2086494;28;20192;-64
2022/09/14 04:27:18;;;;;;;7.30;2.80;;;;;;;15.56;100.00;101205.38;2086078;28;20239;-63
2022/09/14 04:28:19;;;;;;;11.60;3.47;;;;;;;15.56;100.00;101206.16;2085936;28;20474;-63
2022/09/14 04:29:19;;;;;;;8.93;3.23;;;;;;;15.56;100.00;101203.38;2086133;28;20207;-63
2022/09/14 04:30:20;;;;;;;12.23;3.30;;;;;;;15.62;100.00;101209.16;2085538;28;20274;-63
2022/09/14 04:31:21;;;;;;;9.30;2.90;;;;;;;15.63;100.00;101222.66;2088800;28;20183;-63
2022/09/14 04:32:21;;;;;;;9.57;3.40;;;;;;;15.65;100.00;101216.63;2087111;28;20995;-63
2022/09/14 04:33:22;;;;;;;6.77;3.63;;;;;;;15.66;100.00;101213.41;2084922;28;20188;-63
2022/09/14 04:34:23;;;;;;;10.40;5.03;;;;;;;15.67;100.00;101211.38;2085749;28;20211;-63
2022/09/14 04:35:23;;;;;;;7.37;4.63;;;;;;;15.69;100.00;101209.69;2086572;28;20208;-63
2022/09/14 04:36:28;;;;;;;12.77;4.23;;;;;;;15.70;100.00;101214.06;2085453;28;20240;-63
2022/09/14 04:37:31;;;;;;;6.87;3.93;;;;;;;15.68;100.00;101205.31;2087691;28;20190;-63
2022/09/14 04:38:32;;;;;;;11.43;3.70;;;;;;;15.61;100.00;101202.00;2088732;28;20920;-63
2022/09/14 04:39:33;;;;;;;7.40;3.40;;;;;;;15.50;100.00;101191.22;2086121;28;20845;-63
2022/09/14 04:40:33;;;;;;;4.47;2.73;;;;;;;15.66;100.00;101213.41;2086616;28;20563;-64
2022/09/14 04:41:34;;;;;;;7.20;3.10;;;;;;;15.69;100.00;101215.28;2086416;28;20196;-64
2022/09/14 04:42:34;;;;;;;5.87;3.07;;;;;;;14.98;100.00;101103.66;2084867;28;20850;-64
2022/09/14 04:43:35;;;;;;;5.53;2.60;;;;;;;15.77;100.00;101218.63;2086295;28;20224;-64
2022/09/14 04:44:36;;;;;;;7.37;2.70;;;;;;;15.82;100.00;101218.00;2087812;28;20284;-64
2022/09/14 04:45:36;;;;;;;5.50;3.00;;;;;;;15.84;100.00;101230.28;2081925;28;20560;-64
2022/09/14 04:46:38;;;;;;;4.67;2.80;;;;;;;15.25;100.00;101129.03;2085508;28;20204;-64
2022/09/14 04:47:39;;;;;;;7.10;3.00;;;;;;;15.88;100.00;101236.53;2085984;28;20188;-64
2022/09/14 04:48:40;;;;;;;4.10;2.80;;;;;;;15.92;100.00;101226.03;2086335;28;20435;-64
2022/09/14 04:49:40;;;;;;;8.17;4.43;;;;;;;15.90;100.00;101233.31;2086456;28;20176;-64
2022/09/14 04:50:41;;;;;;;9.13;4.20;;;;;;;15.97;100.00;101227.44;2088457;28;20191;-64
2022/09/14 04:51:41;;;;;;;4.77;4.20;;;;;;;15.98;100.00;101232.59;2086603;28;20200;-64
2022/09/14 04:52:42;;;;;;;8.90;4.50;;;;;;;16.02;100.00;101235.25;2086097;28;20196;-64
2022/09/14 04:53:43;;;;;;;11.40;4.90;;;;;;;15.58;100.00;101159.00;2086006;28;20222;-64
2022/09/14 04:54:43;;;;;;;15.20;6.37;;;;;;;16.08;100.00;101237.00;2085598;28;20718;-65
2022/09/14 04:55:44;;;;;;;14.60;5.27;;;;;;;16.11;100.00;101241.72;2086495;28;20858;-64
2022/09/14 04:56:45;;;;;;;12.87;5.60;;;;;;;16.16;100.00;101238.31;2086834;28;20191;-64
2022/09/14 04:57:45;;;;;;;18.00;6.30;;;;;;;16.04;100.00;101218.81;2086108;28;20691;-65